Aérodrome :
LOGIN :

S'inscrire | Disclaimer

   EN    FR    IT 

 










Légende :    VFR   VFR Marginal   IFR   IFR Intensif   IFR Très Intensif
Visi : 
Plafond : 
>= 8 km
>= 3000ft
5 à 8 km
1000 à 3000 ft
1500m à 5 km
500 à 1000 ft
800 à 1500m
200 à 500 ft
< 800m
< 200 ft
Symboles :   Orages  Brouillard  Fortes neiges  Fortes précipitations  Vent > 20 kt
SIGMETs :   Divers  Orages  Givrage  Turbulence  Onde Orograph.  Cendres Volcan.






- Altitude de l'aérodrome : 779 ft
- Code IATA : CMF


LFLB - Chambery / Aix-Les-Bains

DERNIER METAR :
  • 200300Z AUTO 17003KT 9999 BKN006 02/01 Q1027

METARs EXPIRÉS :
  • 200230Z AUTO 25001KT 9999 OVC006 03/02 Q1027
  • 200200Z AUTO 18003KT 9999 OVC007 03/02 Q1027
  • 200130Z AUTO 21002KT 9000 OVC008 02/01 Q1028
  • 200100Z AUTO 00000KT 8000 OVC009 02/01 Q1028
  • 200030Z AUTO 00000KT 8000 OVC009 02/01 Q1028
  • 200000Z AUTO 14003KT 8000 BKN009 01/00 Q1028

TAF AMD TAF LFLB
Valide du 19 à 21h jusqu'au 20 à 18h UTC


192137Z 1921/2018 VRB02KT CAVOK
TEMPO 1921/2008 2000 BR
PROB40
TEMPO 1921/2007 0600 FG VV///



MET'MAP, la Météo Aéronautique d'un coup d'oeil ! - Copyright ORBIFLY Décembre 2007 - Disclaimer

ORBIFLY MET'MAP TEAM :

Programmation & Développement : Alexandra Zaïnal
Sur une idée originale de : Baudouin d'Aumeries
Assistance à la programmation : Marc-Olivier Méhu
Soutien technique & logistique : Manuel Goepfert

Contact : metmap@orbifly.com




SOURCES & CREDITS :

   NOAA